sensor_id;sensor_type;location;lat;lon;timestamp;P1;durP1;ratioP1;P2;durP2;ratioP2
20185;SDS011;10252;48.792;8.582;2023-08-06T00:04:22;3.78;;;3.35;;
20185;SDS011;10252;48.792;8.582;2023-08-06T00:09:39;3.63;;;3.25;;
20185;SDS011;10252;48.792;8.582;2023-08-06T00:14:40;5.47;;;3.10;;
20185;SDS011;10252;48.792;8.582;2023-08-06T00:19:44;3.63;;;3.03;;
20185;SDS011;10252;48.792;8.582;2023-08-06T00:24:45;4.70;;;3.40;;
20185;SDS011;10252;48.792;8.582;2023-08-06T00:29:46;4.35;;;3.75;;
20185;SDS011;10252;48.792;8.582;2023-08-06T00:34:48;5.30;;;3.53;;
20185;SDS011;10252;48.792;8.582;2023-08-06T00:39:52;6.88;;;3.30;;
20185;SDS011;10252;48.792;8.582;2023-08-06T00:44:53;3.40;;;3.10;;
20185;SDS011;10252;48.792;8.582;2023-08-06T00:49:54;3.15;;;2.65;;
20185;SDS011;10252;48.792;8.582;2023-08-06T00:54:56;6.47;;;3.40;;
20185;SDS011;10252;48.792;8.582;2023-08-06T00:59:57;5.18;;;2.90;;
20185;SDS011;10252;48.792;8.582;2023-08-06T01:04:58;2.95;;;2.63;;
20185;SDS011;10252;48.792;8.582;2023-08-06T01:10:08;8.52;;;3.10;;
20185;SDS011;10252;48.792;8.582;2023-08-06T01:15:13;8.43;;;3.15;;
20185;SDS011;10252;48.792;8.582;2023-08-06T01:20:16;3.60;;;2.67;;
20185;SDS011;10252;48.792;8.582;2023-08-06T01:25:17;6.18;;;3.42;;
20185;SDS011;10252;48.792;8.582;2023-08-06T01:35:23;5.35;;;3.72;;
20185;SDS011;10252;48.792;8.582;2023-08-06T01:40:26;7.45;;;3.78;;
20185;SDS011;10252;48.792;8.582;2023-08-06T01:45:28;4.82;;;3.53;;
20185;SDS011;10252;48.792;8.582;2023-08-06T01:50:30;4.05;;;3.55;;
20185;SDS011;10252;48.792;8.582;2023-08-06T01:55:31;4.70;;;3.65;;
20185;SDS011;10252;48.792;8.582;2023-08-06T02:00:32;6.63;;;3.85;;
20185;SDS011;10252;48.792;8.582;2023-08-06T02:05:34;6.78;;;3.65;;
20185;SDS011;10252;48.792;8.582;2023-08-06T02:10:35;5.05;;;3.88;;
20185;SDS011;10252;48.792;8.582;2023-08-06T02:15:41;6.10;;;3.38;;
20185;SDS011;10252;48.792;8.582;2023-08-06T02:20:43;7.07;;;3.50;;
20185;SDS011;10252;48.792;8.582;2023-08-06T02:25:44;3.78;;;3.42;;
20185;SDS011;10252;48.792;8.582;2023-08-06T02:30:50;4.85;;;2.83;;
20185;SDS011;10252;48.792;8.582;2023-08-06T02:35:51;5.35;;;3.13;;
20185;SDS011;10252;48.792;8.582;2023-08-06T02:40:52;5.50;;;3.85;;
20185;SDS011;10252;48.792;8.582;2023-08-06T02:45:56;4.38;;;3.47;;
20185;SDS011;10252;48.792;8.582;2023-08-06T02:50:58;3.80;;;3.50;;
20185;SDS011;10252;48.792;8.582;2023-08-06T02:56:00;5.07;;;3.03;;
20185;SDS011;10252;48.792;8.582;2023-08-06T03:01:11;6.53;;;3.13;;
20185;SDS011;10252;48.792;8.582;2023-08-06T03:06:21;6.65;;;3.10;;
20185;SDS011;10252;48.792;8.582;2023-08-06T03:11:27;9.48;;;2.78;;
20185;SDS011;10252;48.792;8.582;2023-08-06T03:16:34;4.13;;;2.88;;
20185;SDS011;10252;48.792;8.582;2023-08-06T03:21:35;6.78;;;3.42;;
20185;SDS011;10252;48.792;8.582;2023-08-06T03:26:38;4.97;;;3.25;;
20185;SDS011;10252;48.792;8.582;2023-08-06T03:31:39;1.70;;;1.30;;
20185;SDS011;10252;48.792;8.582;2023-08-06T03:36:42;5.40;;;2.63;;
20185;SDS011;10252;48.792;8.582;2023-08-06T03:41:43;1.52;;;1.10;;
20185;SDS011;10252;48.792;8.582;2023-08-06T03:46:44;3.70;;;1.20;;
20185;SDS011;10252;48.792;8.582;2023-08-06T03:51:46;1.15;;;0.93;;
20185;SDS011;10252;48.792;8.582;2023-08-06T03:56:47;1.77;;;0.90;;
20185;SDS011;10252;48.792;8.582;2023-08-06T04:01:50;3.50;;;0.88;;
20185;SDS011;10252;48.792;8.582;2023-08-06T04:06:51;2.28;;;1.10;;
20185;SDS011;10252;48.792;8.582;2023-08-06T04:11:56;2.95;;;0.90;;
20185;SDS011;10252;48.792;8.582;2023-08-06T04:16:58;2.30;;;0.70;;
20185;SDS011;10252;48.792;8.582;2023-08-06T04:22:00;1.20;;;0.73;;
20185;SDS011;10252;48.792;8.582;2023-08-06T04:27:01;1.17;;;0.90;;
20185;SDS011;10252;48.792;8.582;2023-08-06T04:32:06;1.30;;;0.63;;
20185;SDS011;10252;48.792;8.582;2023-08-06T04:37:09;1.52;;;0.65;;
20185;SDS011;10252;48.792;8.582;2023-08-06T04:42:10;1.58;;;0.60;;
20185;SDS011;10252;48.792;8.582;2023-08-06T04:47:12;1.25;;;0.93;;
20185;SDS011;10252;48.792;8.582;2023-08-06T04:52:13;1.52;;;0.70;;
20185;SDS011;10252;48.792;8.582;2023-08-06T04:57:14;2.08;;;1.17;;
20185;SDS011;10252;48.792;8.582;2023-08-06T05:02:15;2.78;;;0.80;;
20185;SDS011;10252;48.792;8.582;2023-08-06T05:07:17;2.13;;;0.77;;
20185;SDS011;10252;48.792;8.582;2023-08-06T05:12:18;1.02;;;0.88;;
20185;SDS011;10252;48.792;8.582;2023-08-06T05:17:19;0.93;;;0.40;;
20185;SDS011;10252;48.792;8.582;2023-08-06T05:22:23;2.47;;;0.60;;
20185;SDS011;10252;48.792;8.582;2023-08-06T05:27:24;1.60;;;0.30;;
20185;SDS011;10252;48.792;8.582;2023-08-06T05:32:25;2.30;;;0.30;;
20185;SDS011;10252;48.792;8.582;2023-08-06T05:37:26;0.65;;;0.20;;
20185;SDS011;10252;48.792;8.582;2023-08-06T05:42:28;0.65;;;0.25;;
20185;SDS011;10252;48.792;8.582;2023-08-06T05:47:29;0.20;;;0.20;;
20185;SDS011;10252;48.792;8.582;2023-08-06T05:52:31;1.35;;;0.17;;
20185;SDS011;10252;48.792;8.582;2023-08-06T05:57:32;0.90;;;0.25;;
20185;SDS011;10252;48.792;8.582;2023-08-06T06:02:33;0.10;;;0.10;;
20185;SDS011;10252;48.792;8.582;2023-08-06T06:07:35;0.20;;;0.10;;
20185;SDS011;10252;48.792;8.582;2023-08-06T06:12:37;0.17;;;0.17;;
20185;SDS011;10252;48.792;8.582;2023-08-06T06:17:39;0.15;;;0.10;;
20185;SDS011;10252;48.792;8.582;2023-08-06T06:22:40;0.30;;;0.10;;
20185;SDS011;10252;48.792;8.582;2023-08-06T06:27:41;0.40;;;0.17;;
20185;SDS011;10252;48.792;8.582;2023-08-06T06:32:43;0.13;;;0.13;;
20185;SDS011;10252;48.792;8.582;2023-08-06T06:37:44;1.00;;;0.20;;
20185;SDS011;10252;48.792;8.582;2023-08-06T06:42:45;0.10;;;0.10;;
20185;SDS011;10252;48.792;8.582;2023-08-06T06:47:47;0.45;;;0.08;;
20185;SDS011;10252;48.792;8.582;2023-08-06T06:52:49;0.85;;;0.10;;
20185;SDS011;10252;48.792;8.582;2023-08-06T06:57:50;0.35;;;0.10;;
20185;SDS011;10252;48.792;8.582;2023-08-06T07:02:51;0.00;;;0.00;;
20185;SDS011;10252;48.792;8.582;2023-08-06T07:07:52;1.10;;;0.10;;
20185;SDS011;10252;48.792;8.582;2023-08-06T07:12:54;0.90;;;0.40;;
20185;SDS011;10252;48.792;8.582;2023-08-06T07:17:55;0.10;;;0.10;;
20185;SDS011;10252;48.792;8.582;2023-08-06T07:22:57;0.28;;;0.20;;
20185;SDS011;10252;48.792;8.582;2023-08-06T07:27:58;0.10;;;0.10;;
20185;SDS011;10252;48.792;8.582;2023-08-06T07:33:01;0.03;;;0.03;;
20185;SDS011;10252;48.792;8.582;2023-08-06T07:38:02;0.20;;;0.17;;
20185;SDS011;10252;48.792;8.582;2023-08-06T07:43:03;0.22;;;0.15;;
20185;SDS011;10252;48.792;8.582;2023-08-06T07:48:05;0.10;;;0.10;;
20185;SDS011;10252;48.792;8.582;2023-08-06T07:53:06;0.10;;;0.10;;
20185;SDS011;10252;48.792;8.582;2023-08-06T07:58:08;0.68;;;0.10;;
20185;SDS011;10252;48.792;8.582;2023-08-06T08:03:09;0.10;;;0.10;;
20185;SDS011;10252;48.792;8.582;2023-08-06T08:08:10;0.25;;;0.05;;
20185;SDS011;10252;48.792;8.582;2023-08-06T08:13:12;0.00;;;0.00;;
20185;SDS011;10252;48.792;8.582;2023-08-06T08:18:13;0.00;;;0.00;;
20185;SDS011;10252;48.792;8.582;2023-08-06T08:23:14;0.25;;;0.00;;
20185;SDS011;10252;48.792;8.582;2023-08-06T08:28:15;0.00;;;0.00;;
20185;SDS011;10252;48.792;8.582;2023-08-06T08:33:17;0.15;;;0.15;;
20185;SDS011;10252;48.792;8.582;2023-08-06T08:38:18;0.40;;;0.10;;
20185;SDS011;10252;48.792;8.582;2023-08-06T08:43:21;0.75;;;0.05;;
20185;SDS011;10252;48.792;8.582;2023-08-06T08:48:25;1.17;;;0.17;;
20185;SDS011;10252;48.792;8.582;2023-08-06T08:53:27;0.00;;;0.00;;
20185;SDS011;10252;48.792;8.582;2023-08-06T08:58:28;0.22;;;0.20;;
20185;SDS011;10252;48.792;8.582;2023-08-06T09:03:30;0.45;;;0.10;;
20185;SDS011;10252;48.792;8.582;2023-08-06T09:08:36;0.60;;;0.10;;
20185;SDS011;10252;48.792;8.582;2023-08-06T09:13:38;0.32;;;0.10;;
20185;SDS011;10252;48.792;8.582;2023-08-06T09:18:39;0.88;;;0.22;;
20185;SDS011;10252;48.792;8.582;2023-08-06T09:23:41;0.10;;;0.10;;
20185;SDS011;10252;48.792;8.582;2023-08-06T09:28:42;0.08;;;0.08;;
20185;SDS011;10252;48.792;8.582;2023-08-06T09:33:43;0.10;;;0.10;;
20185;SDS011;10252;48.792;8.582;2023-08-06T09:38:45;0.00;;;0.00;;
20185;SDS011;10252;48.792;8.582;2023-08-06T09:43:47;0.22;;;0.00;;
20185;SDS011;10252;48.792;8.582;2023-08-06T09:48:48;1.15;;;0.03;;
20185;SDS011;10252;48.792;8.582;2023-08-06T09:53:51;0.00;;;0.00;;
20185;SDS011;10252;48.792;8.582;2023-08-06T09:58:53;0.10;;;0.10;;
20185;SDS011;10252;48.792;8.582;2023-08-06T10:03:54;2.55;;;0.30;;
20185;SDS011;10252;48.792;8.582;2023-08-06T10:08:57;0.03;;;0.03;;
20185;SDS011;10252;48.792;8.582;2023-08-06T10:19:04;0.20;;;0.20;;
20185;SDS011;10252;48.792;8.582;2023-08-06T10:24:09;0.73;;;0.40;;
20185;SDS011;10252;48.792;8.582;2023-08-06T10:39:51;1.42;;;0.50;;
20185;SDS011;10252;48.792;8.582;2023-08-06T10:50:16;2.03;;;0.85;;
20185;SDS011;10252;48.792;8.582;2023-08-06T10:55:27;1.60;;;1.02;;
20185;SDS011;10252;48.792;8.582;2023-08-06T11:00:29;2.03;;;1.30;;
20185;SDS011;10252;48.792;8.582;2023-08-06T11:05:30;1.77;;;1.20;;
20185;SDS011;10252;48.792;8.582;2023-08-06T11:10:35;2.72;;;1.23;;
20185;SDS011;10252;48.792;8.582;2023-08-06T11:15:36;6.43;;;1.83;;
20185;SDS011;10252;48.792;8.582;2023-08-06T11:20:38;2.63;;;1.70;;
20185;SDS011;10252;48.792;8.582;2023-08-06T11:25:46;2.97;;;2.30;;
20185;SDS011;10252;48.792;8.582;2023-08-06T11:30:48;2.78;;;2.10;;
20185;SDS011;10252;48.792;8.582;2023-08-06T11:35:49;2.30;;;1.83;;
20185;SDS011;10252;48.792;8.582;2023-08-06T11:40:51;2.72;;;1.80;;
20185;SDS011;10252;48.792;8.582;2023-08-06T11:45:52;4.72;;;2.05;;
20185;SDS011;10252;48.792;8.582;2023-08-06T11:50:56;2.90;;;2.05;;
20185;SDS011;10252;48.792;8.582;2023-08-06T11:55:59;4.05;;;1.80;;
20185;SDS011;10252;48.792;8.582;2023-08-06T12:01:01;1.45;;;1.35;;
20185;SDS011;10252;48.792;8.582;2023-08-06T12:06:02;1.80;;;1.25;;
20185;SDS011;10252;48.792;8.582;2023-08-06T12:11:03;2.45;;;1.38;;
20185;SDS011;10252;48.792;8.582;2023-08-06T12:16:05;1.65;;;1.08;;
20185;SDS011;10252;48.792;8.582;2023-08-06T12:21:06;1.23;;;1.00;;
20185;SDS011;10252;48.792;8.582;2023-08-06T12:26:07;1.52;;;1.05;;
20185;SDS011;10252;48.792;8.582;2023-08-06T12:31:08;2.78;;;1.17;;
20185;SDS011;10252;48.792;8.582;2023-08-06T12:36:10;2.10;;;1.17;;
20185;SDS011;10252;48.792;8.582;2023-08-06T12:41:11;2.00;;;1.38;;
20185;SDS011;10252;48.792;8.582;2023-08-06T12:46:12;4.30;;;1.23;;
20185;SDS011;10252;48.792;8.582;2023-08-06T12:51:13;1.73;;;1.27;;
20185;SDS011;10252;48.792;8.582;2023-08-06T12:56:15;1.50;;;1.02;;
20185;SDS011;10252;48.792;8.582;2023-08-06T13:01:16;0.80;;;0.80;;
20185;SDS011;10252;48.792;8.582;2023-08-06T13:06:17;0.98;;;0.70;;
20185;SDS011;10252;48.792;8.582;2023-08-06T13:11:18;0.60;;;0.60;;
20185;SDS011;10252;48.792;8.582;2023-08-06T13:16:19;0.82;;;0.80;;
20185;SDS011;10252;48.792;8.582;2023-08-06T13:21:21;0.85;;;0.80;;
20185;SDS011;10252;48.792;8.582;2023-08-06T13:26:22;2.10;;;0.80;;
20185;SDS011;10252;48.792;8.582;2023-08-06T13:31:23;1.15;;;0.88;;
20185;SDS011;10252;48.792;8.582;2023-08-06T13:36:28;1.23;;;1.00;;
20185;SDS011;10252;48.792;8.582;2023-08-06T13:41:29;1.30;;;1.20;;
20185;SDS011;10252;48.792;8.582;2023-08-06T13:46:30;1.00;;;0.80;;
20185;SDS011;10252;48.792;8.582;2023-08-06T13:51:32;1.65;;;0.88;;
20185;SDS011;10252;48.792;8.582;2023-08-06T13:56:35;1.73;;;0.88;;
20185;SDS011;10252;48.792;8.582;2023-08-06T14:01:38;0.90;;;0.70;;
20185;SDS011;10252;48.792;8.582;2023-08-06T14:06:39;1.38;;;0.98;;
20185;SDS011;10252;48.792;8.582;2023-08-06T14:11:40;2.85;;;0.98;;
20185;SDS011;10252;48.792;8.582;2023-08-06T14:16:41;1.20;;;0.82;;
20185;SDS011;10252;48.792;8.582;2023-08-06T14:21:42;0.70;;;0.70;;
20185;SDS011;10252;48.792;8.582;2023-08-06T14:26:44;4.30;;;0.90;;
20185;SDS011;10252;48.792;8.582;2023-08-06T14:31:45;1.10;;;0.90;;
20185;SDS011;10252;48.792;8.582;2023-08-06T14:36:46;1.45;;;0.80;;
20185;SDS011;10252;48.792;8.582;2023-08-06T14:41:48;1.00;;;0.85;;
20185;SDS011;10252;48.792;8.582;2023-08-06T14:46:49;2.10;;;1.02;;
20185;SDS011;10252;48.792;8.582;2023-08-06T14:51:51;1.95;;;1.00;;
20185;SDS011;10252;48.792;8.582;2023-08-06T14:56:52;2.70;;;1.30;;
20185;SDS011;10252;48.792;8.582;2023-08-06T15:01:53;2.33;;;0.95;;
20185;SDS011;10252;48.792;8.582;2023-08-06T15:06:55;4.30;;;1.00;;
20185;SDS011;10252;48.792;8.582;2023-08-06T15:11:56;0.77;;;0.60;;
20185;SDS011;10252;48.792;8.582;2023-08-06T15:16:57;1.65;;;0.98;;
20185;SDS011;10252;48.792;8.582;2023-08-06T15:21:58;3.80;;;1.10;;
20185;SDS011;10252;48.792;8.582;2023-08-06T15:27:00;1.15;;;0.65;;
20185;SDS011;10252;48.792;8.582;2023-08-06T15:32:01;1.88;;;0.98;;
20185;SDS011;10252;48.792;8.582;2023-08-06T15:37:03;1.55;;;1.08;;
20185;SDS011;10252;48.792;8.582;2023-08-06T15:42:07;2.58;;;1.10;;
20185;SDS011;10252;48.792;8.582;2023-08-06T15:47:08;1.27;;;0.90;;
20185;SDS011;10252;48.792;8.582;2023-08-06T15:52:09;2.53;;;1.00;;
20185;SDS011;10252;48.792;8.582;2023-08-06T15:57:11;4.32;;;1.15;;
20185;SDS011;10252;48.792;8.582;2023-08-06T16:02:12;3.20;;;0.73;;
20185;SDS011;10252;48.792;8.582;2023-08-06T16:07:16;1.15;;;0.90;;
20185;SDS011;10252;48.792;8.582;2023-08-06T16:12:19;1.15;;;0.80;;
20185;SDS011;10252;48.792;8.582;2023-08-06T16:17:21;1.52;;;1.17;;
20185;SDS011;10252;48.792;8.582;2023-08-06T16:22:22;1.15;;;1.02;;
20185;SDS011;10252;48.792;8.582;2023-08-06T16:27:23;1.40;;;1.10;;
20185;SDS011;10252;48.792;8.582;2023-08-06T16:32:25;1.98;;;1.10;;
20185;SDS011;10252;48.792;8.582;2023-08-06T16:37:26;1.85;;;0.98;;
20185;SDS011;10252;48.792;8.582;2023-08-06T16:42:28;1.80;;;1.13;;
20185;SDS011;10252;48.792;8.582;2023-08-06T16:47:29;2.85;;;1.50;;
20185;SDS011;10252;48.792;8.582;2023-08-06T16:52:31;2.80;;;1.48;;
20185;SDS011;10252;48.792;8.582;2023-08-06T16:57:32;2.63;;;1.27;;
20185;SDS011;10252;48.792;8.582;2023-08-06T17:02:34;4.40;;;1.40;;
20185;SDS011;10252;48.792;8.582;2023-08-06T17:07:35;1.77;;;1.50;;
20185;SDS011;10252;48.792;8.582;2023-08-06T17:12:36;2.47;;;1.20;;
20185;SDS011;10252;48.792;8.582;2023-08-06T17:17:38;3.55;;;1.90;;
20185;SDS011;10252;48.792;8.582;2023-08-06T17:22:39;3.55;;;1.67;;
20185;SDS011;10252;48.792;8.582;2023-08-06T17:27:41;2.45;;;1.60;;
20185;SDS011;10252;48.792;8.582;2023-08-06T17:32:42;2.90;;;1.48;;
20185;SDS011;10252;48.792;8.582;2023-08-06T17:37:43;4.75;;;1.83;;
20185;SDS011;10252;48.792;8.582;2023-08-06T17:42:45;2.70;;;1.52;;
20185;SDS011;10252;48.792;8.582;2023-08-06T17:47:46;3.42;;;1.80;;
20185;SDS011;10252;48.792;8.582;2023-08-06T17:52:47;3.45;;;1.85;;
20185;SDS011;10252;48.792;8.582;2023-08-06T17:57:49;2.45;;;1.80;;
20185;SDS011;10252;48.792;8.582;2023-08-06T18:02:50;3.15;;;1.65;;
20185;SDS011;10252;48.792;8.582;2023-08-06T18:07:51;3.78;;;1.70;;
20185;SDS011;10252;48.792;8.582;2023-08-06T18:12:53;4.68;;;1.42;;
20185;SDS011;10252;48.792;8.582;2023-08-06T18:17:54;2.83;;;1.65;;
20185;SDS011;10252;48.792;8.582;2023-08-06T18:22:56;2.47;;;1.90;;
20185;SDS011;10252;48.792;8.582;2023-08-06T18:27:57;3.90;;;1.80;;
20185;SDS011;10252;48.792;8.582;2023-08-06T18:32:58;3.50;;;1.92;;
20185;SDS011;10252;48.792;8.582;2023-08-06T18:38:00;1.55;;;1.25;;
20185;SDS011;10252;48.792;8.582;2023-08-06T18:43:01;2.75;;;1.80;;
20185;SDS011;10252;48.792;8.582;2023-08-06T18:48:03;3.50;;;2.00;;
20185;SDS011;10252;48.792;8.582;2023-08-06T18:53:04;2.22;;;1.42;;
20185;SDS011;10252;48.792;8.582;2023-08-06T18:58:05;2.13;;;1.48;;
20185;SDS011;10252;48.792;8.582;2023-08-06T19:03:09;3.10;;;1.40;;
20185;SDS011;10252;48.792;8.582;2023-08-06T19:08:10;2.90;;;1.85;;
20185;SDS011;10252;48.792;8.582;2023-08-06T19:13:12;4.85;;;1.58;;
20185;SDS011;10252;48.792;8.582;2023-08-06T19:18:13;1.90;;;1.38;;
20185;SDS011;10252;48.792;8.582;2023-08-06T19:23:15;2.30;;;1.30;;
20185;SDS011;10252;48.792;8.582;2023-08-06T19:28:19;2.97;;;1.38;;
20185;SDS011;10252;48.792;8.582;2023-08-06T19:33:21;2.17;;;1.20;;
20185;SDS011;10252;48.792;8.582;2023-08-06T19:38:23;3.13;;;1.40;;
20185;SDS011;10252;48.792;8.582;2023-08-06T19:43:24;1.63;;;1.23;;
20185;SDS011;10252;48.792;8.582;2023-08-06T19:48:25;2.08;;;1.48;;
20185;SDS011;10252;48.792;8.582;2023-08-06T19:53:30;3.47;;;1.20;;
20185;SDS011;10252;48.792;8.582;2023-08-06T19:58:32;3.25;;;1.85;;
20185;SDS011;10252;48.792;8.582;2023-08-06T20:03:34;3.42;;;1.38;;
20185;SDS011;10252;48.792;8.582;2023-08-06T20:08:38;1.20;;;1.10;;
20185;SDS011;10252;48.792;8.582;2023-08-06T20:13:39;2.30;;;1.50;;
20185;SDS011;10252;48.792;8.582;2023-08-06T20:18:40;4.80;;;1.25;;
20185;SDS011;10252;48.792;8.582;2023-08-06T20:23:42;2.13;;;1.30;;
20185;SDS011;10252;48.792;8.582;2023-08-06T20:28:43;1.40;;;1.23;;
20185;SDS011;10252;48.792;8.582;2023-08-06T20:33:45;2.45;;;1.27;;
20185;SDS011;10252;48.792;8.582;2023-08-06T20:38:46;1.92;;;1.00;;
20185;SDS011;10252;48.792;8.582;2023-08-06T20:43:47;1.48;;;1.20;;
20185;SDS011;10252;48.792;8.582;2023-08-06T20:48:48;1.27;;;1.17;;
20185;SDS011;10252;48.792;8.582;2023-08-06T20:53:50;3.95;;;1.20;;
20185;SDS011;10252;48.792;8.582;2023-08-06T20:58:51;4.00;;;1.20;;
20185;SDS011;10252;48.792;8.582;2023-08-06T21:03:53;1.95;;;1.00;;
20185;SDS011;10252;48.792;8.582;2023-08-06T21:08:54;1.83;;;1.30;;
20185;SDS011;10252;48.792;8.582;2023-08-06T21:13:55;1.52;;;1.20;;
20185;SDS011;10252;48.792;8.582;2023-08-06T21:18:57;2.78;;;1.17;;
20185;SDS011;10252;48.792;8.582;2023-08-06T21:23:58;3.30;;;1.13;;
20185;SDS011;10252;48.792;8.582;2023-08-06T21:28:59;3.47;;;1.42;;
20185;SDS011;10252;48.792;8.582;2023-08-06T21:34:01;2.28;;;1.52;;
20185;SDS011;10252;48.792;8.582;2023-08-06T21:39:02;3.03;;;1.60;;
20185;SDS011;10252;48.792;8.582;2023-08-06T21:44:04;3.40;;;1.50;;
20185;SDS011;10252;48.792;8.582;2023-08-06T21:49:05;2.92;;;1.27;;
20185;SDS011;10252;48.792;8.582;2023-08-06T21:54:06;4.55;;;1.50;;
20185;SDS011;10252;48.792;8.582;2023-08-06T21:59:13;2.22;;;1.40;;
20185;SDS011;10252;48.792;8.582;2023-08-06T22:04:15;2.17;;;1.63;;
20185;SDS011;10252;48.792;8.582;2023-08-06T22:09:16;5.68;;;1.60;;
20185;SDS011;10252;48.792;8.582;2023-08-06T22:14:17;2.95;;;1.63;;
20185;SDS011;10252;48.792;8.582;2023-08-06T22:19:19;4.00;;;1.70;;
20185;SDS011;10252;48.792;8.582;2023-08-06T22:24:20;4.85;;;1.30;;
20185;SDS011;10252;48.792;8.582;2023-08-06T22:29:21;4.47;;;1.75;;
20185;SDS011;10252;48.792;8.582;2023-08-06T22:34:22;6.35;;;1.73;;
20185;SDS011;10252;48.792;8.582;2023-08-06T22:39:24;2.38;;;1.58;;
20185;SDS011;10252;48.792;8.582;2023-08-06T22:44:25;4.47;;;1.80;;
20185;SDS011;10252;48.792;8.582;2023-08-06T22:49:27;2.28;;;1.38;;
20185;SDS011;10252;48.792;8.582;2023-08-06T22:54:28;7.63;;;2.25;;
20185;SDS011;10252;48.792;8.582;2023-08-06T22:59:29;5.82;;;1.58;;
20185;SDS011;10252;48.792;8.582;2023-08-06T23:04:30;3.67;;;1.60;;
20185;SDS011;10252;48.792;8.582;2023-08-06T23:09:32;3.83;;;1.50;;
20185;SDS011;10252;48.792;8.582;2023-08-06T23:14:33;5.00;;;1.42;;
20185;SDS011;10252;48.792;8.582;2023-08-06T23:19:35;4.32;;;1.83;;
20185;SDS011;10252;48.792;8.582;2023-08-06T23:24:36;2.22;;;1.48;;
20185;SDS011;10252;48.792;8.582;2023-08-06T23:29:37;2.95;;;1.75;;
20185;SDS011;10252;48.792;8.582;2023-08-06T23:34:39;1.95;;;1.40;;
20185;SDS011;10252;48.792;8.582;2023-08-06T23:39:40;2.35;;;1.73;;
20185;SDS011;10252;48.792;8.582;2023-08-06T23:44:41;2.78;;;1.65;;
20185;SDS011;10252;48.792;8.582;2023-08-06T23:49:43;3.60;;;1.60;;
20185;SDS011;10252;48.792;8.582;2023-08-06T23:54:44;3.83;;;1.48;;
20185;SDS011;10252;48.792;8.582;2023-08-06T23:59:46;5.88;;;1.83;;
